Time;durP1;ratioP1;P1;durP2;ratioP2;P2;SDS_P1;SDS_P2;PMS_P1;PMS_P2;Temp;Humidity;BMP_temperature;BMP_pressure;BME280_temperature;BME280_humidity;BME280_pressure;Samples;Min_cycle;Max_cycle;Signal;HPM_P1;HPM_P2
2022/08/30 00:02:19;;;;;;;;;0.00;0.00;;;;;18.70;68.63;102209.25;5047317;28;8828;-66
2022/08/30 00:04:46;;;;;;;;;3.25;3.25;;;;;18.71;68.53;102201.91;5031963;28;8903;-67
2022/08/30 00:07:12;;;;;;;;;2.00;2.00;;;;;18.73;68.71;102206.09;5028409;28;8823;-67
2022/08/30 00:09:39;;;;;;;;;2.00;2.00;;;;;18.80;68.70;102207.94;5012219;28;8830;-67
2022/08/30 00:12:06;;;;;;;;;3.75;2.25;;;;;18.80;68.41;102205.22;5028745;28;8812;-67
2022/08/30 00:14:32;;;;;;;;;2.50;2.50;;;;;18.76;68.66;102208.41;5016162;28;8896;-67
2022/08/30 00:16:58;;;;;;;;;3.00;3.00;;;;;18.76;69.08;102205.69;5027312;28;9608;-67
2022/08/30 00:19:25;;;;;;;;;7.00;4.00;;;;;18.74;69.25;102201.47;5031947;28;8992;-66
2022/08/30 00:21:51;;;;;;;;;4.00;3.50;;;;;18.76;69.46;102199.38;5031507;28;8844;-67
2022/08/30 00:24:18;;;;;;;;;4.50;4.00;;;;;18.76;68.54;102200.22;5046994;28;8958;-66
2022/08/30 00:26:44;;;;;;;;;2.25;2.25;;;;;18.74;68.67;102205.03;5029179;28;8945;-67
2022/08/30 00:29:10;;;;;;;;;3.00;3.00;;;;;18.74;68.11;102201.47;5011868;28;8815;-67
2022/08/30 00:31:37;;;;;;;;;2.75;2.75;;;;;18.73;68.26;102197.91;5039443;28;9569;-67
2022/08/30 00:34:04;;;;;;;;;2.00;2.00;;;;;18.76;68.05;102207.56;5030476;28;8828;-67
2022/08/30 00:36:30;;;;;;;;;4.75;4.75;;;;;18.74;67.59;102196.84;5030917;28;8880;-67
2022/08/30 00:38:56;;;;;;;;;3.00;2.75;;;;;18.67;67.93;102193.28;5031592;28;8897;-66
2022/08/30 00:41:23;;;;;;;;;3.50;3.50;;;;;18.64;67.95;102196.47;5031176;28;8910;-67
2022/08/30 00:43:49;;;;;;;;;2.00;2.00;;;;;18.66;67.96;102193.50;5031572;28;8954;-66
2022/08/30 00:46:16;;;;;;;;;3.00;3.00;;;;;18.64;68.06;102192.91;5030943;28;8860;-67
2022/08/30 00:48:46;;;;;;;;;3.00;3.00;;;;;18.61;68.31;102190.59;5024285;28;8823;-67
2022/08/30 00:51:14;;;;;;;;;3.00;2.75;;;;;18.60;68.54;102188.94;5020990;28;8824;-67
2022/08/30 00:53:47;;;;;;;;;2.00;2.00;;;;;18.60;68.50;102194.38;5031654;28;8824;-65
2022/08/30 00:56:15;;;;;;;;;4.00;3.50;;;;;18.60;68.54;102195.22;5033560;28;8856;-65
2022/08/30 00:58:47;;;;;;;;;5.75;4.00;;;;;18.53;68.73;102197.94;5033549;28;8856;-65
2022/08/30 01:01:14;;;;;;;;;7.00;5.50;;;;;18.51;68.95;102199.19;5031591;28;8825;-65
2022/08/30 01:03:42;;;;;;;;;3.25;3.25;;;;;18.51;69.07;102196.47;5016219;28;8827;-67
2022/08/30 01:06:10;;;;;;;;;3.25;3.25;;;;;18.53;69.08;102197.13;5020759;28;8915;-66
2022/08/30 01:08:38;;;;;;;;;4.25;4.25;;;;;18.54;68.59;102205.06;5030977;28;8836;-66
2022/08/30 01:11:05;;;;;;;;;4.50;4.50;;;;;18.55;68.37;102203.19;5030658;28;8922;-67
2022/08/30 01:13:33;;;;;;;;;6.00;5.00;;;;;18.53;68.40;102205.28;5033070;28;8848;-64
2022/08/30 01:16:01;;;;;;;;;5.75;5.75;;;;;18.49;68.55;102210.34;5028074;28;9544;-64
2022/08/30 01:18:30;;;;;;;;;3.00;2.50;;;;;18.51;68.30;102210.09;5011881;28;8837;-66
2022/08/30 01:21:17;;;;;;;;;6.50;6.50;;;;;18.44;68.38;102207.41;5020526;28;8898;-65
2022/08/30 01:23:46;;;;;;;;;11.25;8.00;;;;;18.34;68.27;102206.16;5031747;28;8856;-66
2022/08/30 01:26:16;;;;;;;;;7.00;7.00;;;;;18.25;68.58;102206.41;5029974;28;8836;-66
2022/08/30 01:28:52;;;;;;;;;4.00;4.00;;;;;18.24;68.27;102204.72;5030350;28;8852;-66
2022/08/30 01:31:18;;;;;;;;;5.50;5.50;;;;;18.26;68.15;102202.59;5024599;28;9053;-67
2022/08/30 01:33:45;;;;;;;;;4.25;4.25;;;;;18.23;68.10;102197.59;5010707;28;8855;-67
2022/08/30 01:36:13;;;;;;;;;4.00;4.00;;;;;18.21;68.06;102209.75;5025188;28;8934;-66
2022/08/30 01:38:50;;;;;;;;;6.00;5.00;;;;;18.19;68.04;102207.25;5023784;28;8826;-66
2022/08/30 01:41:23;;;;;;;;;6.00;6.00;;;;;18.13;68.24;102207.25;5021628;28;9648;-65
2022/08/30 01:43:52;;;;;;;;;4.00;4.00;;;;;18.09;68.70;102211.44;5032968;28;8894;-65
2022/08/30 01:46:23;;;;;;;;;7.00;4.50;;;;;18.05;68.74;102202.84;5029627;28;8963;-64
2022/08/30 01:48:52;;;;;;;;;7.00;7.00;;;;;18.00;68.95;102213.56;5013091;28;8818;-65
2022/08/30 01:51:22;;;;;;;;;3.50;3.50;;;;;18.01;68.90;102209.78;5022789;28;8859;-66
2022/08/30 01:53:48;;;;;;;;;3.00;3.00;;;;;18.03;68.76;102207.69;5032430;28;8829;-66
2022/08/30 01:56:15;;;;;;;;;5.50;5.50;;;;;18.02;68.90;102206.81;5032415;28;8879;-65
2022/08/30 01:58:42;;;;;;;;;6.00;4.25;;;;;18.04;68.90;102204.75;5032196;28;8860;-65
2022/08/30 02:01:11;;;;;;;;;5.50;5.50;;;;;18.01;68.49;102212.50;5033321;28;8831;-66
2022/08/30 02:03:40;;;;;;;;;7.25;6.00;;;;;17.97;69.03;102212.06;5012153;28;8845;-66
2022/08/30 02:06:10;;;;;;;;;6.75;4.00;;;;;18.01;69.03;102215.22;5020512;28;8891;-66
2022/08/30 02:08:39;;;;;;;;;5.75;5.00;;;;;18.06;68.65;102211.88;5031725;28;8863;-66
2022/08/30 02:11:06;;;;;;;;;6.00;4.50;;;;;18.04;68.91;102217.53;5031605;28;8853;-65
2022/08/30 02:13:33;;;;;;;;;5.00;5.00;;;;;18.08;69.02;102215.22;5033373;28;8836;-66
2022/08/30 02:15:59;;;;;;;;;5.50;5.50;;;;;18.07;68.85;102213.53;5035996;28;8844;-66
2022/08/30 02:18:26;;;;;;;;;3.00;3.00;;;;;18.05;68.70;102205.56;5021206;28;8859;-65
2022/08/30 02:20:53;;;;;;;;;4.00;4.00;;;;;18.04;69.05;102206.63;5022738;28;8832;-66
2022/08/30 02:23:19;;;;;;;;;3.25;3.25;;;;;18.02;69.04;102209.56;5036021;28;8813;-66
2022/08/30 02:25:46;;;;;;;;;7.00;5.25;;;;;18.04;68.85;102201.19;5035391;28;8858;-66
2022/08/30 02:28:14;;;;;;;;;4.50;4.00;;;;;18.04;68.74;102202.03;5035197;28;8868;-66
2022/08/30 02:30:43;;;;;;;;;4.00;3.00;;;;;18.08;68.92;102201.59;5035871;28;8950;-66
2022/08/30 02:33:10;;;;;;;;;5.00;5.00;;;;;18.04;68.80;102196.56;5035779;28;8804;-66
2022/08/30 02:35:37;;;;;;;;;5.50;3.75;;;;;18.01;68.78;102201.59;5036293;28;8906;-65
2022/08/30 02:38:04;;;;;;;;;5.00;4.50;;;;;17.99;69.14;102203.72;5051798;28;8902;-66
2022/08/30 02:40:30;;;;;;;;;6.25;4.25;;;;;18.00;68.93;102194.47;5035511;28;8820;-66
2022/08/30 02:42:57;;;;;;;;;7.75;6.00;;;;;18.00;68.74;102199.94;5036318;28;8829;-65
2022/08/30 02:45:24;;;;;;;;;5.50;5.50;;;;;18.00;68.87;102194.47;5035718;28;8933;-66
2022/08/30 02:47:50;;;;;;;;;2.00;2.00;;;;;18.02;69.18;102195.94;5035690;28;8828;-66
2022/08/30 02:50:17;;;;;;;;;6.00;4.50;;;;;17.98;69.09;102196.56;5037452;28;8843;-66
2022/08/30 02:52:44;;;;;;;;;2.00;2.00;;;;;17.96;69.11;102190.50;5035788;28;8939;-66
2022/08/30 02:55:14;;;;;;;;;4.50;4.50;;;;;17.96;68.92;102187.78;5025195;28;8869;-65
2022/08/30 02:57:40;;;;;;;;;3.75;3.75;;;;;17.89;69.32;102189.66;5034859;28;8833;-65
2022/08/30 03:00:08;;;;;;;;;5.25;4.00;;;;;17.85;69.86;102188.41;5030297;28;8819;-66
2022/08/30 03:02:34;;;;;;;;;4.75;3.25;;;;;17.82;69.72;102186.09;5015557;28;8861;-67
2022/08/30 03:05:03;;;;;;;;;4.00;4.00;;;;;17.80;69.93;102186.31;5015314;28;8843;-66
2022/08/30 03:07:30;;;;;;;;;3.67;3.67;;;;;17.84;69.94;102184.00;5034698;28;8871;-66
2022/08/30 03:09:57;;;;;;;;;4.50;4.50;;;;;17.87;69.72;102184.44;5034939;28;9608;-67
2022/08/30 03:12:24;;;;;;;;;3.50;3.25;;;;;17.86;69.70;102181.91;5033317;28;8855;-66
2022/08/30 03:14:51;;;;;;;;;5.67;5.33;;;;;17.82;69.57;102186.09;5034008;28;8924;-67
2022/08/30 03:17:18;;;;;;;;;7.00;6.00;;;;;17.74;69.91;102182.56;5034447;28;8901;-66
2022/08/30 03:19:45;;;;;;;;;6.00;6.00;;;;;17.67;70.36;102189.84;5035210;28;8922;-67
2022/08/30 03:22:11;;;;;;;;;6.50;6.00;;;;;17.64;70.26;102182.06;5034729;28;8832;-67
2022/08/30 03:24:38;;;;;;;;;9.25;9.25;;;;;17.60;70.06;102189.00;5034424;28;8824;-66
2022/08/30 03:27:04;;;;;;;;;8.25;8.00;;;;;17.54;70.49;102184.34;5034335;28;8864;-66
2022/08/30 03:29:30;;;;;;;;;5.25;3.00;;;;;17.51;70.92;102187.53;5017983;28;8899;-67
2022/08/30 03:31:57;;;;;;;;;8.00;7.50;;;;;17.49;70.93;102189.59;5030427;28;8840;-66
2022/08/30 03:34:25;;;;;;;;;6.50;5.50;;;;;17.50;71.15;102191.25;5035136;28;8812;-66
2022/08/30 03:36:54;;;;;;;;;6.00;6.00;;;;;17.53;70.76;102197.13;5034606;28;8840;-64
2022/08/30 03:39:22;;;;;;;;;4.25;4.00;;;;;17.59;70.77;102194.66;5034104;28;8824;-66
2022/08/30 03:41:48;;;;;;;;;10.00;5.75;;;;;17.61;70.46;102192.53;5030322;28;9110;-66
2022/08/30 03:44:14;;;;;;;;;7.00;7.00;;;;;17.59;70.13;102186.47;5015546;28;8846;-65
2022/08/30 03:46:41;;;;;;;;;4.75;3.75;;;;;17.53;70.91;102180.81;5006772;28;9564;-65
2022/08/30 03:49:08;;;;;;;;;8.00;8.00;;;;;17.51;70.83;102173.91;5014986;28;8838;-65
2022/08/30 03:51:34;;;;;;;;;8.75;8.00;;;;;17.49;70.80;102173.25;5027218;28;8882;-66
2022/08/30 03:54:01;;;;;;;;;8.25;6.00;;;;;17.48;71.46;102171.59;5034350;28;8847;-65
2022/08/30 03:56:28;;;;;;;;;6.75;4.75;;;;;17.48;71.09;102174.31;5034155;28;9514;-66
2022/08/30 03:58:54;;;;;;;;;7.75;6.75;;;;;17.45;71.29;102172.00;5025811;28;8846;-65
2022/08/30 04:01:21;;;;;;;;;6.67;6.33;;;;;17.47;71.19;102175.38;5024873;28;8941;-65
2022/08/30 04:03:47;;;;;;;;;8.50;7.00;;;;;17.51;70.87;102173.91;5034132;28;8925;-65
2022/08/30 04:06:14;;;;;;;;;6.75;6.00;;;;;17.52;70.47;102181.03;5033739;28;8855;-66
2022/08/30 04:08:42;;;;;;;;;8.00;6.00;;;;;17.53;70.50;102178.06;5032964;28;8832;-66
2022/08/30 04:11:12;;;;;;;;;6.00;6.00;;;;;17.52;70.05;102181.03;5033889;28;8932;-65
2022/08/30 04:13:38;;;;;;;;;7.00;7.00;;;;;17.49;70.38;102181.44;5034550;28;8816;-65
2022/08/30 04:16:05;;;;;;;;;4.50;4.50;;;;;17.49;70.40;102190.44;5033911;28;8836;-66
2022/08/30 04:18:33;;;;;;;;;7.50;7.50;;;;;17.50;70.36;102188.53;5033633;28;8835;-66
2022/08/30 04:21:01;;;;;;;;;7.00;6.25;;;;;17.49;69.91;102189.59;5032940;28;8828;-66
2022/08/30 04:23:28;;;;;;;;;6.50;6.50;;;;;17.47;69.95;102194.44;5034073;28;8851;-66
2022/08/30 04:25:55;;;;;;;;;4.50;4.50;;;;;17.47;70.21;102194.44;5033445;28;8828;-66
2022/08/30 04:28:22;;;;;;;;;7.75;7.75;;;;;17.50;69.74;102196.72;5033372;28;8843;-66
2022/08/30 04:30:48;;;;;;;;;7.00;6.50;;;;;17.49;69.66;102192.31;5033093;28;8824;-66
2022/08/30 04:33:15;;;;;;;;;5.25;5.25;;;;;17.51;69.87;102195.69;5033611;28;8917;-66
2022/08/30 04:35:45;;;;;;;;;5.25;3.50;;;;;17.53;69.50;102188.97;5032931;28;8820;-65
2022/08/30 04:38:13;;;;;;;;;3.25;3.25;;;;;17.51;69.88;102195.69;5030438;28;8808;-65
2022/08/30 04:40:41;;;;;;;;;8.33;7.00;;;;;17.46;69.61;102209.94;5033351;28;8848;-65
2022/08/30 04:43:08;;;;;;;;;4.00;4.00;;;;;17.45;69.98;102205.50;5033383;28;8910;-66
2022/08/30 04:45:38;;;;;;;;;6.00;5.50;;;;;17.45;69.74;102204.66;5032185;28;8828;-66
2022/08/30 04:48:05;;;;;;;;;4.25;4.25;;;;;17.45;69.99;102210.13;5032350;28;8816;-66
2022/08/30 04:50:32;;;;;;;;;10.00;7.25;;;;;17.47;69.78;102208.88;5032953;28;8855;-67
2022/08/30 04:53:08;;;;;;;;;5.75;5.75;;;;;17.40;69.64;102205.28;5032956;28;8836;-65
2022/08/30 04:55:35;;;;;;;;;3.75;3.75;;;;;17.38;69.99;102207.41;5033175;28;8828;-66
2022/08/30 04:58:01;;;;;;;;;6.25;5.25;;;;;17.41;69.48;102211.56;5032817;28;8832;-66
2022/08/30 05:00:27;;;;;;;;;6.00;6.00;;;;;17.41;69.59;102211.56;5027266;28;8852;-65
2022/08/30 05:02:54;;;;;;;;;5.50;3.00;;;;;17.36;69.52;102212.19;5031933;28;8828;-66
2022/08/30 05:05:39;;;;;;;;;4.00;4.00;;;;;17.35;69.71;102213.25;5033037;28;8832;-67
2022/08/30 05:08:07;;;;;;;;;3.50;3.50;;;;;17.39;69.23;102214.50;5032663;28;8840;-65
2022/08/30 05:10:41;;;;;;;;;8.75;7.25;;;;;17.42;69.42;102214.09;5031953;28;8848;-68
2022/08/30 05:13:08;;;;;;;;;6.25;6.00;;;;;17.45;69.16;102218.28;5032807;28;8816;-67
2022/08/30 05:15:36;;;;;;;;;6.25;5.50;;;;;17.46;69.15;102226.25;5032498;28;8836;-66
2022/08/30 05:18:03;;;;;;;;;4.25;4.25;;;;;17.48;69.06;102220.59;5032591;28;9518;-64
2022/08/30 05:20:30;;;;;;;;;3.00;3.00;;;;;17.52;68.69;102228.13;5032797;28;8910;-68
2022/08/30 05:22:57;;;;;;;;;6.00;6.00;;;;;17.56;68.83;102225.84;5032138;28;8839;-66
2022/08/30 05:25:27;;;;;;;;;6.00;6.00;;;;;17.57;68.48;102232.97;5015896;28;9100;-66
2022/08/30 05:27:54;;;;;;;;;4.25;4.25;;;;;17.55;68.51;102230.47;5032052;28;8845;-66
2022/08/30 05:30:22;;;;;;;;;5.00;5.00;;;;;17.50;68.67;102234.81;5032433;28;8812;-66
2022/08/30 05:32:49;;;;;;;;;4.00;4.00;;;;;17.48;68.79;102231.50;5032931;28;8824;-66
2022/08/30 05:35:16;;;;;;;;;8.00;8.00;;;;;17.46;68.26;102234.44;5032712;28;8839;-66
2022/08/30 05:37:49;;;;;;;;;5.25;5.00;;;;;17.39;68.77;102236.28;5032225;28;8937;-67
2022/08/30 05:40:16;;;;;;;;;7.00;7.00;;;;;17.36;68.75;102233.13;5031143;28;8832;-66
2022/08/30 05:42:44;;;;;;;;;7.50;6.75;;;;;17.35;68.40;102236.91;5032258;28;9629;-67
2022/08/30 05:45:12;;;;;;;;;5.00;5.00;;;;;17.35;68.92;102228.75;5032343;28;8978;-67
2022/08/30 05:47:39;;;;;;;;;9.33;7.33;;;;;17.33;68.65;102237.09;5031427;28;8840;-67
2022/08/30 05:50:07;;;;;;;;;6.00;6.00;;;;;17.34;68.75;102233.34;5032404;28;9056;-66
2022/08/30 05:52:35;;;;;;;;;3.00;3.00;;;;;17.38;68.73;102236.47;5012152;28;8867;-66
2022/08/30 05:55:03;;;;;;;;;7.00;7.00;;;;;17.41;68.31;102245.06;5012212;28;8843;-66
2022/08/30 05:57:38;;;;;;;;;9.75;6.00;;;;;17.43;68.00;102239.44;5012922;28;8827;-67
2022/08/30 06:00:08;;;;;;;;;3.75;3.75;;;;;17.50;67.92;102238.41;5028104;28;8870;-67
2022/08/30 06:02:39;;;;;;;;;6.33;5.33;;;;;17.48;67.53;102240.50;5016276;28;8821;-67
2022/08/30 06:05:07;;;;;;;;;9.33;8.67;;;;;17.45;67.68;102240.06;5030536;28;9143;-67
2022/08/30 06:07:34;;;;;;;;;5.67;5.67;;;;;17.43;68.00;102253.06;5011371;28;9093;-65
2022/08/30 06:10:00;;;;;;;;;6.00;6.00;;;;;17.43;68.18;102253.88;5019862;28;9038;-65
2022/08/30 06:12:27;;;;;;;;;7.00;7.00;;;;;17.46;68.01;102253.47;5031974;28;8832;-66
2022/08/30 06:14:53;;;;;;;;;6.00;4.00;;;;;17.46;68.22;102250.75;5030818;28;9644;-66
2022/08/30 06:17:20;;;;;;;;;6.75;6.00;;;;;17.47;68.10;102246.97;5031113;28;8989;-66
2022/08/30 06:19:46;;;;;;;;;7.75;7.00;;;;;17.49;68.14;102246.78;5031787;28;8951;-66
2022/08/30 06:22:13;;;;;;;;;7.00;7.00;;;;;17.50;67.87;102246.59;5031414;28;8894;-67
2022/08/30 06:24:39;;;;;;;;;6.50;4.50;;;;;17.49;68.06;102244.03;5017435;28;8989;-67
2022/08/30 06:27:22;;;;;;;;;12.33;10.00;;;;;17.46;68.35;102248.03;5029880;28;9522;-67
2022/08/30 06:29:52;;;;;;;;;4.50;4.00;;;;;17.47;68.52;102244.25;5018010;28;9011;-67
2022/08/30 06:32:19;;;;;;;;;6.50;3.75;;;;;17.54;68.02;102249.69;5012150;28;8935;-67
2022/08/30 06:34:47;;;;;;;;;6.25;6.00;;;;;17.60;67.54;102240.72;5011847;28;9622;-67
2022/08/30 06:37:13;;;;;;;;;5.00;5.00;;;;;17.64;67.37;102246.59;5029254;28;9615;-67
2022/08/30 06:39:56;;;;;;;;;7.00;5.00;;;;;17.67;67.13;102244.31;5032060;28;8943;-68
2022/08/30 06:42:23;;;;;;;;;4.50;4.50;;;;;17.71;66.34;102244.72;5030403;28;8854;-66
2022/08/30 06:44:49;;;;;;;;;5.00;4.50;;;;;17.74;66.41;102245.19;5030880;28;8836;-65
2022/08/30 06:47:16;;;;;;;;;4.00;4.00;;;;;17.74;65.68;102250.63;5030633;28;8848;-66
2022/08/30 06:49:43;;;;;;;;;3.50;3.50;;;;;17.77;65.06;102255.66;5031391;28;8809;-66
2022/08/30 06:52:09;;;;;;;;;2.00;2.00;;;;;17.80;64.97;102259.84;5031403;28;8879;-67
2022/08/30 06:54:37;;;;;;;;;3.00;3.00;;;;;17.80;64.42;102259.84;5031888;28;8826;-66
2022/08/30 06:57:03;;;;;;;;;2.75;2.75;;;;;17.84;64.31;102258.38;5031160;28;8970;-66
2022/08/30 06:59:31;;;;;;;;;2.00;2.00;;;;;17.91;64.40;102261.97;5016141;28;8881;-67
2022/08/30 07:01:57;;;;;;;;;3.00;2.50;;;;;17.97;63.98;102263.00;5030716;28;8837;-66
2022/08/30 07:04:25;;;;;;;;;3.25;3.25;;;;;18.01;63.61;102262.38;5035722;28;8817;-66
2022/08/30 07:06:52;;;;;;;;;3.25;3.25;;;;;18.04;63.51;102261.97;5034902;28;8845;-65
2022/08/30 07:09:18;;;;;;;;;2.50;2.50;;;;;18.07;63.05;102255.28;5035123;28;8836;-66
2022/08/30 07:11:48;;;;;;;;;3.25;2.00;;;;;18.09;62.90;102260.50;5034848;28;8856;-66
2022/08/30 07:14:14;;;;;;;;;2.25;2.00;;;;;18.08;62.93;102265.13;5033233;28;8956;-66
2022/08/30 07:16:42;;;;;;;;;2.50;2.50;;;;;18.14;61.94;102260.69;5028380;28;8930;-66
2022/08/30 07:19:09;;;;;;;;;2.00;2.00;;;;;18.15;61.57;102267.81;5035060;28;8937;-67
2022/08/30 07:21:47;;;;;;;;;2.50;2.50;;;;;18.17;61.44;102261.13;5034511;28;8855;-67
2022/08/30 07:24:15;;;;;;;;;2.25;2.25;;;;;18.22;61.74;102255.03;5019908;28;8854;-66
2022/08/30 07:26:48;;;;;;;;;1.50;1.00;;;;;18.28;61.75;102262.38;5027423;28;8971;-67
2022/08/30 07:29:16;;;;;;;;;2.00;2.00;;;;;18.32;60.35;102262.81;5034620;28;8970;-67
2022/08/30 07:31:43;;;;;;;;;1.00;1.00;;;;;18.31;59.66;102266.56;5025157;28;8950;-66
2022/08/30 07:34:09;;;;;;;;;2.50;1.75;;;;;18.32;59.53;102262.81;5014814;28;8886;-66
2022/08/30 07:36:38;;;;;;;;;1.00;1.00;;;;;18.41;59.16;102253.34;5023965;28;10532;-66
2022/08/30 07:39:05;;;;;;;;;2.00;1.00;;;;;18.47;59.00;102258.81;5014120;28;8863;-66
2022/08/30 07:41:37;;;;;;;;;0.00;0.00;;;;;18.49;57.44;102258.59;5027068;28;8813;-67
2022/08/30 07:44:05;;;;;;;;;1.00;1.00;;;;;18.52;57.43;102258.16;5034063;28;8825;-66
2022/08/30 07:46:31;;;;;;;;;1.50;1.50;;;;;18.55;56.49;102263.16;5033607;28;8895;-65
2022/08/30 07:49:00;;;;;;;;;1.50;0.75;;;;;18.53;57.25;102257.94;5034203;28;9582;-66
2022/08/30 07:51:30;;;;;;;;;2.00;2.00;;;;;18.58;56.88;102270.09;5034300;28;8836;-65
2022/08/30 07:53:56;;;;;;;;;1.00;1.00;;;;;18.62;56.27;102253.09;5032107;28;8856;-66
2022/08/30 07:56:23;;;;;;;;;1.00;1.00;;;;;18.66;55.53;102259.78;5033856;28;8922;-65
2022/08/30 07:58:50;;;;;;;;;1.00;1.00;;;;;18.66;54.20;102257.06;5035058;28;8825;-66
2022/08/30 08:01:18;;;;;;;;;1.00;1.00;;;;;18.69;55.15;102255.81;5034369;28;8832;-66
2022/08/30 08:03:45;;;;;;;;;1.00;1.00;;;;;18.74;54.49;102269.69;5034212;28;8867;-66
2022/08/30 08:06:13;;;;;;;;;1.75;1.75;;;;;18.75;54.39;102266.72;5034319;28;8844;-66
2022/08/30 08:08:41;;;;;;;;;2.00;0.25;;;;;18.70;54.59;102266.53;5015506;28;8949;-66
2022/08/30 08:11:17;;;;;;;;;2.00;0.75;;;;;18.76;54.36;102271.16;5022830;28;8824;-66
2022/08/30 08:13:45;;;;;;;;;1.00;1.00;;;;;18.89;54.70;102266.72;5034260;28;8836;-66
2022/08/30 08:16:22;;;;;;;;;0.00;0.00;;;;;18.99;54.20;102264.34;5033634;28;8828;-66
2022/08/30 08:18:49;;;;;;;;;1.00;1.00;;;;;19.03;53.53;102276.50;5034483;28;8825;-66
2022/08/30 08:21:16;;;;;;;;;0.50;0.50;;;;;19.09;52.94;102269.38;5025789;28;8846;-65
2022/08/30 08:23:42;;;;;;;;;2.00;2.00;;;;;19.03;52.29;102266.44;5014158;28;8839;-66
2022/08/30 08:26:09;;;;;;;;;2.25;1.25;;;;;19.06;52.61;102269.78;5022865;28;8939;-66
2022/08/30 08:28:35;;;;;;;;;1.00;1.00;;;;;19.07;52.79;102271.47;5033643;28;8848;-65
2022/08/30 08:31:02;;;;;;;;;0.50;0.50;;;;;19.03;53.20;102263.69;5022708;28;8943;-65
2022/08/30 08:33:28;;;;;;;;;1.00;1.00;;;;;19.03;53.30;102265.59;5032392;28;8866;-66
2022/08/30 08:35:55;;;;;;;;;0.00;0.00;;;;;19.21;53.48;102273.09;5032324;28;8955;-66
2022/08/30 08:38:21;;;;;;;;;1.00;1.00;;;;;19.32;53.77;102266.09;5031235;28;8840;-66
2022/08/30 08:41:02;;;;;;;;;1.25;1.00;;;;;19.42;53.21;102277.41;5031439;28;8963;-67
2022/08/30 08:43:32;;;;;;;;;1.00;1.00;;;;;19.36;52.14;102276.34;5031582;28;8828;-66
2022/08/30 08:46:09;;;;;;;;;1.25;0.75;;;;;19.35;52.61;102274.69;5031199;28;8847;-66
2022/08/30 08:48:48;;;;;;;;;1.00;1.00;;;;;19.36;52.52;102281.81;5020843;28;8926;-66
2022/08/30 08:54:41;;;;;;;;;1.00;1.00;;;;;19.39;52.91;102284.13;5034574;28;8855;-64
2022/08/30 08:57:09;;;;;;;;;1.75;1.75;;;;;19.42;52.69;102288.31;5034118;28;8840;-65
2022/08/30 08:59:43;;;;;;;;;1.00;1.00;;;;;19.50;51.83;102282.59;5033926;28;8836;-66
2022/08/30 09:02:28;;;;;;;;;2.00;1.75;;;;;19.49;52.21;102287.22;5022293;28;8869;-65
2022/08/30 09:05:00;;;;;;;;;0.50;0.50;;;;;19.47;51.73;102286.59;5013094;28;8924;-66
2022/08/30 09:07:31;;;;;;;;;1.00;0.50;;;;;19.65;51.92;102283.19;5030439;28;8975;-65
2022/08/30 09:09:59;;;;;;;;;1.00;1.00;;;;;19.79;51.40;102280.38;5033285;28;8839;-65
2022/08/30 09:12:26;;;;;;;;;2.50;1.00;;;;;19.83;51.36;102274.22;5033150;28;8910;-65
2022/08/30 09:15:00;;;;;;;;;1.75;1.00;;;;;19.89;51.10;102276.09;5033161;28;8840;-65
2022/08/30 09:17:27;;;;;;;;;1.00;1.00;;;;;19.83;51.33;102276.13;5031800;28;8841;-65
2022/08/30 09:19:54;;;;;;;;;5.25;3.00;;;;;19.90;51.18;102276.94;5033229;28;8824;-66
2022/08/30 09:22:39;;;;;;;;;3.00;1.00;;;;;19.85;50.89;102280.34;5032261;28;8840;-66
2022/08/30 09:25:25;;;;;;;;;2.00;2.00;;;;;19.86;51.27;102276.53;5032575;28;8925;-65
2022/08/30 09:27:53;;;;;;;;;1.00;1.00;;;;;19.98;51.03;102279.38;5012289;28;8973;-65
2022/08/30 09:30:28;;;;;;;;;1.00;1.00;;;;;20.02;51.04;102269.69;5014828;28;8933;-64
2022/08/30 09:32:58;;;;;;;;;2.00;1.00;;;;;20.02;50.61;102274.31;5032818;28;8962;-68
2022/08/30 09:35:33;;;;;;;;;1.50;1.50;;;;;19.97;51.21;102284.03;5030511;28;8887;-66
2022/08/30 09:38:08;;;;;;;;;1.50;1.50;;;;;20.05;50.46;102276.59;5031979;28;8965;-66
2022/08/30 09:40:41;;;;;;;;;1.25;1.25;;;;;19.97;49.88;102272.22;5032519;28;8852;-66
2022/08/30 09:43:33;;;;;;;;;1.75;1.00;;;;;19.98;50.24;102274.75;5031728;28;8825;-65
2022/08/30 09:45:59;;;;;;;;;1.00;1.00;;;;;20.08;50.41;102282.44;5032691;28;8833;-66
2022/08/30 09:48:35;;;;;;;;;0.25;0.25;;;;;20.19;50.13;102289.94;5024989;28;8867;-66
2022/08/30 09:51:35;;;;;;;;;3.00;2.00;;;;;20.19;49.63;102287.19;5020821;28;8951;-66
2022/08/30 09:54:23;;;;;;;;;0.50;0.50;;;;;20.29;50.30;102291.31;5032424;28;8860;-66
2022/08/30 09:57:00;;;;;;;;;1.75;1.75;;;;;20.35;50.51;102284.97;5032287;28;8927;-66
2022/08/30 09:59:48;;;;;;;;;3.00;2.50;;;;;20.26;50.57;102287.16;5032413;28;8914;-66
2022/08/30 10:02:40;;;;;;;;;1.25;1.25;;;;;20.30;50.62;102290.28;5024687;28;8950;-65
2022/08/30 10:05:23;;;;;;;;;2.00;2.00;;;;;20.30;50.68;102298.50;5016831;28;8962;-65
2022/08/30 10:08:06;;;;;;;;;0.75;0.75;;;;;20.20;50.88;102285.31;5030718;28;8879;-65
2022/08/30 10:10:53;;;;;;;;;1.00;1.00;;;;;20.20;51.15;102268.91;5032051;28;8947;-65
2022/08/30 10:13:37;;;;;;;;;3.00;1.75;;;;;20.20;51.53;102277.09;5032377;28;8959;-65
2022/08/30 10:16:10;;;;;;;;;3.50;3.00;;;;;20.28;52.20;102281.44;5032324;28;8832;-65
2022/08/30 10:19:08;;;;;;;;;2.75;2.75;;;;;20.36;52.17;102281.16;5031337;28;8898;-66
2022/08/30 10:21:42;;;;;;;;;1.50;1.50;;;;;20.38;52.10;102279.91;5040285;28;8848;-65
2022/08/30 10:24:13;;;;;;;;;3.00;3.00;;;;;20.41;52.09;102278.59;5032752;28;8837;-65
2022/08/30 10:26:57;;;;;;;;;2.25;1.75;;;;;20.41;51.67;102286.78;5031597;28;8847;-65
2022/08/30 10:29:48;;;;;;;;;3.00;3.00;;;;;20.37;51.56;102282.84;5032065;28;8965;-66
2022/08/30 10:32:27;;;;;;;;;2.00;2.00;;;;;20.37;51.53;102282.84;5031121;28;8890;-66
2022/08/30 10:35:17;;;;;;;;;1.50;1.50;;;;;20.34;50.63;102294.25;5033314;28;8946;-66
2022/08/30 10:37:51;;;;;;;;;2.00;1.00;;;;;20.40;50.94;102282.38;5016408;28;8866;-66
2022/08/30 10:43:21;;;;;;;;;2.00;1.75;;;;;20.38;52.77;102290.00;5035941;28;8808;-66
2022/08/30 10:45:50;;;;;;;;;3.75;3.25;;;;;20.35;53.20;102282.25;5035293;28;8858;-65
2022/08/30 10:48:28;;;;;;;;;1.25;1.25;;;;;20.41;53.11;102289.53;5036155;28;8966;-66
2022/08/30 10:51:00;;;;;;;;;0.75;0.75;;;;;20.39;52.92;102289.75;5036159;28;8848;-66
2022/08/30 10:53:38;;;;;;;;;1.75;1.75;;;;;20.43;52.93;102287.41;5036586;28;8888;-65
2022/08/30 10:56:09;;;;;;;;;2.00;2.00;;;;;20.44;52.86;102276.25;5032118;28;8839;-66
2022/08/30 10:58:40;;;;;;;;;1.75;1.75;;;;;20.45;53.44;102279.81;5015713;28;8835;-65
2022/08/30 11:01:24;;;;;;;;;2.25;1.25;;;;;20.51;53.29;102284.44;5024519;28;8899;-67
2022/08/30 11:04:24;;;;;;;;;2.25;2.25;;;;;20.60;52.92;102285.81;5014587;28;8838;-67
2022/08/30 11:07:09;;;;;;;;;1.25;1.25;;;;;20.63;51.71;102285.34;5030976;28;8828;-66
2022/08/30 11:09:59;;;;;;;;;2.00;2.00;;;;;20.56;51.45;102286.47;5021483;28;8851;-66
2022/08/30 11:12:35;;;;;;;;;3.00;2.00;;;;;20.51;50.75;102287.16;5033216;28;8868;-66
2022/08/30 11:15:20;;;;;;;;;1.75;1.75;;;;;20.45;50.77;102285.28;5034871;28;8833;-65
2022/08/30 11:18:07;;;;;;;;;2.50;2.50;;;;;20.46;51.57;102295.19;5013525;28;9040;-66
2022/08/30 11:20:49;;;;;;;;;2.75;1.75;;;;;20.52;51.71;102296.19;5011070;28;8836;-66
2022/08/30 11:23:27;;;;;;;;;2.25;2.00;;;;;20.59;51.60;102295.09;5033981;28;8856;-66
2022/08/30 11:26:24;;;;;;;;;1.25;1.25;;;;;20.71;50.81;102292.44;5021666;28;8829;-66
2022/08/30 11:28:51;;;;;;;;;1.00;1.00;;;;;20.78;49.73;102287.72;5021408;28;8873;-66
2022/08/30 11:31:21;;;;;;;;;0.50;0.50;;;;;20.77;49.26;102294.25;5040743;28;8840;-66
2022/08/30 11:33:51;;;;;;;;;2.00;2.00;;;;;20.69;49.66;102286.34;5035535;28;8832;-64
2022/08/30 11:36:31;;;;;;;;;3.25;2.25;;;;;20.77;50.48;102287.94;5035431;28;8824;-66
2022/08/30 11:39:54;;;;;;;;;2.50;1.00;;;;;20.81;49.56;102295.47;5035494;28;9610;-66
2022/08/30 11:42:33;;;;;;;;;2.00;2.00;;;;;20.85;50.18;102293.13;5021356;28;8879;-65
2022/08/30 11:45:34;;;;;;;;;2.50;1.75;;;;;20.84;49.94;102280.50;5034800;28;8820;-66
2022/08/30 11:48:08;;;;;;;;;2.75;2.75;;;;;20.83;49.70;102281.56;5010237;28;9699;-66
2022/08/30 11:50:59;;;;;;;;;2.00;2.00;;;;;20.80;49.65;102282.03;5016580;28;8843;-67
2022/08/30 11:53:44;;;;;;;;;2.00;1.25;;;;;20.77;49.91;102277.00;5032284;28;8860;-66
2022/08/30 11:56:20;;;;;;;;;2.00;2.00;;;;;20.81;49.47;102275.47;5032154;28;8832;-67
2022/08/30 11:58:49;;;;;;;;;2.00;2.00;;;;;20.86;48.99;102276.47;5021220;28;8893;-66